sensor_id;sensor_type;location;lat;lon;timestamp;P1;durP1;ratioP1;P2;durP2;ratioP2
74204;SDS011;62564;52.678;4.900;2023-06-10T00:01:21;9.07;;;8.17;;
74204;SDS011;62564;52.678;4.900;2023-06-10T00:03:49;9.25;;;8.45;;
74204;SDS011;62564;52.678;4.900;2023-06-10T00:06:15;9.13;;;8.32;;
74204;SDS011;62564;52.678;4.900;2023-06-10T00:08:40;8.90;;;8.07;;
74204;SDS011;62564;52.678;4.900;2023-06-10T00:11:06;9.68;;;8.85;;
74204;SDS011;62564;52.678;4.900;2023-06-10T00:13:31;8.40;;;7.60;;
74204;SDS011;62564;52.678;4.900;2023-06-10T00:15:56;9.48;;;8.57;;
74204;SDS011;62564;52.678;4.900;2023-06-10T00:18:21;11.23;;;10.33;;
74204;SDS011;62564;52.678;4.900;2023-06-10T00:20:47;9.13;;;8.23;;
74204;SDS011;62564;52.678;4.900;2023-06-10T00:23:13;8.43;;;7.63;;
74204;SDS011;62564;52.678;4.900;2023-06-10T00:25:39;9.05;;;8.15;;
74204;SDS011;62564;52.678;4.900;2023-06-10T00:28:05;9.30;;;8.45;;
74204;SDS011;62564;52.678;4.900;2023-06-10T00:30:30;9.60;;;8.73;;
74204;SDS011;62564;52.678;4.900;2023-06-10T00:32:55;8.93;;;8.02;;
74204;SDS011;62564;52.678;4.900;2023-06-10T00:35:21;8.53;;;7.53;;
74204;SDS011;62564;52.678;4.900;2023-06-10T00:37:46;9.82;;;8.95;;
74204;SDS011;62564;52.678;4.900;2023-06-10T00:40:11;8.27;;;7.57;;
74204;SDS011;62564;52.678;4.900;2023-06-10T00:42:37;8.52;;;7.75;;
74204;SDS011;62564;52.678;4.900;2023-06-10T00:45:03;8.70;;;7.90;;
74204;SDS011;62564;52.678;4.900;2023-06-10T00:47:28;8.73;;;7.93;;
74204;SDS011;62564;52.678;4.900;2023-06-10T00:49:55;8.13;;;7.40;;
74204;SDS011;62564;52.678;4.900;2023-06-10T00:52:20;8.45;;;7.65;;
74204;SDS011;62564;52.678;4.900;2023-06-10T00:54:46;8.48;;;7.68;;
74204;SDS011;62564;52.678;4.900;2023-06-10T00:57:12;8.57;;;7.80;;
74204;SDS011;62564;52.678;4.900;2023-06-10T00:59:38;6.95;;;6.35;;
74204;SDS011;62564;52.678;4.900;2023-06-10T01:02:04;7.63;;;6.90;;
74204;SDS011;62564;52.678;4.900;2023-06-10T01:04:30;8.05;;;7.35;;
74204;SDS011;62564;52.678;4.900;2023-06-10T01:07:17;8.20;;;7.47;;
74204;SDS011;62564;52.678;4.900;2023-06-10T01:12:39;7.47;;;6.70;;
74204;SDS011;62564;52.678;4.900;2023-06-10T01:15:06;7.50;;;6.78;;
74204;SDS011;62564;52.678;4.900;2023-06-10T01:17:37;8.02;;;7.32;;
74204;SDS011;62564;52.678;4.900;2023-06-10T01:20:22;7.38;;;6.68;;
74204;SDS011;62564;52.678;4.900;2023-06-10T01:22:48;8.00;;;7.10;;
74204;SDS011;62564;52.678;4.900;2023-06-10T01:25:15;6.40;;;5.80;;
74204;SDS011;62564;52.678;4.900;2023-06-10T01:27:41;6.93;;;5.95;;
74204;SDS011;62564;52.678;4.900;2023-06-10T01:30:08;6.72;;;6.13;;
74204;SDS011;62564;52.678;4.900;2023-06-10T01:32:44;6.30;;;5.70;;
74204;SDS011;62564;52.678;4.900;2023-06-10T01:35:11;6.60;;;6.00;;
74204;SDS011;62564;52.678;4.900;2023-06-10T01:37:38;6.63;;;5.68;;
74204;SDS011;62564;52.678;4.900;2023-06-10T01:42:31;6.85;;;6.10;;
74204;SDS011;62564;52.678;4.900;2023-06-10T01:44:56;6.40;;;5.80;;
74204;SDS011;62564;52.678;4.900;2023-06-10T01:47:22;6.95;;;6.35;;
74204;SDS011;62564;52.678;4.900;2023-06-10T01:49:47;6.37;;;5.77;;
74204;SDS011;62564;52.678;4.900;2023-06-10T01:52:13;6.63;;;6.03;;
74204;SDS011;62564;52.678;4.900;2023-06-10T01:54:38;6.93;;;6.30;;
74204;SDS011;62564;52.678;4.900;2023-06-10T01:57:03;6.67;;;6.07;;
74204;SDS011;62564;52.678;4.900;2023-06-10T01:59:31;6.50;;;5.90;;
74204;SDS011;62564;52.678;4.900;2023-06-10T02:01:56;5.33;;;4.83;;
74204;SDS011;62564;52.678;4.900;2023-06-10T02:04:21;5.83;;;5.23;;
74204;SDS011;62564;52.678;4.900;2023-06-10T02:06:47;6.28;;;5.68;;
74204;SDS011;62564;52.678;4.900;2023-06-10T02:09:13;7.10;;;6.50;;
74204;SDS011;62564;52.678;4.900;2023-06-10T02:11:38;7.03;;;6.35;;
74204;SDS011;62564;52.678;4.900;2023-06-10T02:14:04;6.22;;;5.72;;
74204;SDS011;62564;52.678;4.900;2023-06-10T02:16:30;6.50;;;5.90;;
74204;SDS011;62564;52.678;4.900;2023-06-10T02:18:56;5.68;;;4.85;;
74204;SDS011;62564;52.678;4.900;2023-06-10T02:21:21;6.55;;;5.80;;
74204;SDS011;62564;52.678;4.900;2023-06-10T02:23:46;5.70;;;5.10;;
74204;SDS011;62564;52.678;4.900;2023-06-10T02:26:12;6.72;;;5.63;;
74204;SDS011;62564;52.678;4.900;2023-06-10T02:28:37;5.27;;;4.77;;
74204;SDS011;62564;52.678;4.900;2023-06-10T02:31:02;6.50;;;5.63;;
74204;SDS011;62564;52.678;4.900;2023-06-10T02:33:28;5.40;;;4.90;;
74204;SDS011;62564;52.678;4.900;2023-06-10T02:35:53;5.22;;;4.72;;
74204;SDS011;62564;52.678;4.900;2023-06-10T02:38:19;6.72;;;5.00;;
74204;SDS011;62564;52.678;4.900;2023-06-10T02:40:45;5.50;;;4.75;;
74204;SDS011;62564;52.678;4.900;2023-06-10T02:43:10;6.10;;;5.47;;
74204;SDS011;62564;52.678;4.900;2023-06-10T02:45:35;5.60;;;5.10;;
74204;SDS011;62564;52.678;4.900;2023-06-10T02:48:00;5.47;;;4.87;;
74204;SDS011;62564;52.678;4.900;2023-06-10T02:50:26;6.27;;;4.63;;
74204;SDS011;62564;52.678;4.900;2023-06-10T02:52:51;5.67;;;5.07;;
74204;SDS011;62564;52.678;4.900;2023-06-10T02:55:16;4.70;;;4.15;;
74204;SDS011;62564;52.678;4.900;2023-06-10T02:57:42;5.63;;;4.87;;
74204;SDS011;62564;52.678;4.900;2023-06-10T03:00:07;6.05;;;5.45;;
74204;SDS011;62564;52.678;4.900;2023-06-10T03:02:36;5.20;;;4.70;;
74204;SDS011;62564;52.678;4.900;2023-06-10T03:05:03;5.82;;;4.68;;
74204;SDS011;62564;52.678;4.900;2023-06-10T03:07:30;5.53;;;4.93;;
74204;SDS011;62564;52.678;4.900;2023-06-10T03:09:55;5.60;;;5.00;;
74204;SDS011;62564;52.678;4.900;2023-06-10T03:12:21;6.38;;;5.78;;
74204;SDS011;62564;52.678;4.900;2023-06-10T03:14:46;4.80;;;4.13;;
74204;SDS011;62564;52.678;4.900;2023-06-10T03:17:11;5.37;;;4.87;;
74204;SDS011;62564;52.678;4.900;2023-06-10T03:19:37;5.83;;;4.77;;
74204;SDS011;62564;52.678;4.900;2023-06-10T03:22:15;4.68;;;4.25;;
74204;SDS011;62564;52.678;4.900;2023-06-10T03:24:41;5.28;;;4.78;;
74204;SDS011;62564;52.678;4.900;2023-06-10T03:27:08;5.57;;;4.40;;
74204;SDS011;62564;52.678;4.900;2023-06-10T03:29:35;5.80;;;4.22;;
74204;SDS011;62564;52.678;4.900;2023-06-10T03:32:04;5.63;;;5.05;;
74204;SDS011;62564;52.678;4.900;2023-06-10T03:34:30;5.43;;;4.53;;
74204;SDS011;62564;52.678;4.900;2023-06-10T03:36:56;4.55;;;4.00;;
74204;SDS011;62564;52.678;4.900;2023-06-10T03:39:22;5.80;;;4.18;;
74204;SDS011;62564;52.678;4.900;2023-06-10T03:41:48;4.50;;;3.72;;
74204;SDS011;62564;52.678;4.900;2023-06-10T03:44:13;4.80;;;4.30;;
74204;SDS011;62564;52.678;4.900;2023-06-10T03:46:39;4.85;;;4.13;;
74204;SDS011;62564;52.678;4.900;2023-06-10T03:49:05;5.97;;;5.37;;
74204;SDS011;62564;52.678;4.900;2023-06-10T03:51:30;4.97;;;4.40;;
74204;SDS011;62564;52.678;4.900;2023-06-10T03:53:55;4.97;;;3.77;;
74204;SDS011;62564;52.678;4.900;2023-06-10T03:56:21;3.87;;;2.80;;
74204;SDS011;62564;52.678;4.900;2023-06-10T03:58:46;4.70;;;4.20;;
74204;SDS011;62564;52.678;4.900;2023-06-10T04:01:11;5.87;;;4.27;;
74204;SDS011;62564;52.678;4.900;2023-06-10T04:03:38;5.10;;;4.10;;
74204;SDS011;62564;52.678;4.900;2023-06-10T04:06:04;5.05;;;4.25;;
74204;SDS011;62564;52.678;4.900;2023-06-10T04:08:29;5.32;;;3.95;;
74204;SDS011;62564;52.678;4.900;2023-06-10T04:10:56;5.22;;;4.72;;
74204;SDS011;62564;52.678;4.900;2023-06-10T04:13:22;5.32;;;4.15;;
74204;SDS011;62564;52.678;4.900;2023-06-10T04:15:47;4.53;;;4.07;;
74204;SDS011;62564;52.678;4.900;2023-06-10T04:18:13;4.20;;;3.23;;
74204;SDS011;62564;52.678;4.900;2023-06-10T04:20:38;4.63;;;4.03;;
74204;SDS011;62564;52.678;4.900;2023-06-10T04:23:03;4.73;;;4.00;;
74204;SDS011;62564;52.678;4.900;2023-06-10T04:25:28;4.67;;;4.00;;
74204;SDS011;62564;52.678;4.900;2023-06-10T04:27:54;4.63;;;3.93;;
74204;SDS011;62564;52.678;4.900;2023-06-10T04:30:19;5.53;;;4.05;;
74204;SDS011;62564;52.678;4.900;2023-06-10T04:32:45;4.47;;;4.00;;
74204;SDS011;62564;52.678;4.900;2023-06-10T04:35:13;5.17;;;4.20;;
74204;SDS011;62564;52.678;4.900;2023-06-10T04:37:40;5.35;;;4.22;;
74204;SDS011;62564;52.678;4.900;2023-06-10T04:42:32;4.88;;;4.22;;
74204;SDS011;62564;52.678;4.900;2023-06-10T04:44:57;4.83;;;4.37;;
74204;SDS011;62564;52.678;4.900;2023-06-10T04:47:22;5.40;;;4.17;;
74204;SDS011;62564;52.678;4.900;2023-06-10T04:49:48;4.72;;;3.67;;
74204;SDS011;62564;52.678;4.900;2023-06-10T04:52:13;4.47;;;3.60;;
74204;SDS011;62564;52.678;4.900;2023-06-10T04:54:39;4.82;;;3.33;;
74204;SDS011;62564;52.678;4.900;2023-06-10T04:57:04;4.57;;;3.83;;
74204;SDS011;62564;52.678;4.900;2023-06-10T04:59:32;4.97;;;3.60;;
74204;SDS011;62564;52.678;4.900;2023-06-10T05:01:58;4.57;;;3.58;;
74204;SDS011;62564;52.678;4.900;2023-06-10T05:04:23;4.78;;;3.67;;
74204;SDS011;62564;52.678;4.900;2023-06-10T05:06:49;4.07;;;3.65;;
74204;SDS011;62564;52.678;4.900;2023-06-10T05:09:14;4.43;;;3.85;;
74204;SDS011;62564;52.678;4.900;2023-06-10T05:11:40;4.30;;;3.30;;
74204;SDS011;62564;52.678;4.900;2023-06-10T05:14:05;5.07;;;3.53;;
74204;SDS011;62564;52.678;4.900;2023-06-10T05:16:31;4.30;;;3.90;;
74204;SDS011;62564;52.678;4.900;2023-06-10T05:18:56;4.93;;;4.00;;
74204;SDS011;62564;52.678;4.900;2023-06-10T05:21:21;4.63;;;3.70;;
74204;SDS011;62564;52.678;4.900;2023-06-10T05:23:47;4.70;;;3.57;;
74204;SDS011;62564;52.678;4.900;2023-06-10T05:26:12;4.82;;;3.65;;
74204;SDS011;62564;52.678;4.900;2023-06-10T05:28:37;5.13;;;3.50;;
74204;SDS011;62564;52.678;4.900;2023-06-10T05:31:03;4.53;;;3.20;;
74204;SDS011;62564;52.678;4.900;2023-06-10T05:33:28;5.38;;;3.95;;
74204;SDS011;62564;52.678;4.900;2023-06-10T05:35:54;4.47;;;3.60;;
74204;SDS011;62564;52.678;4.900;2023-06-10T05:38:19;5.50;;;4.20;;
74204;SDS011;62564;52.678;4.900;2023-06-10T05:40:45;4.65;;;3.40;;
74204;SDS011;62564;52.678;4.900;2023-06-10T05:43:11;5.78;;;4.45;;
74204;SDS011;62564;52.678;4.900;2023-06-10T05:45:36;4.63;;;3.47;;
74204;SDS011;62564;52.678;4.900;2023-06-10T05:48:02;4.53;;;3.80;;
74204;SDS011;62564;52.678;4.900;2023-06-10T05:50:27;4.90;;;3.67;;
74204;SDS011;62564;52.678;4.900;2023-06-10T05:52:53;5.37;;;4.07;;
74204;SDS011;62564;52.678;4.900;2023-06-10T05:55:19;4.10;;;3.30;;
74204;SDS011;62564;52.678;4.900;2023-06-10T05:57:45;4.63;;;3.78;;
74204;SDS011;62564;52.678;4.900;2023-06-10T06:00:10;4.20;;;3.40;;
74204;SDS011;62564;52.678;4.900;2023-06-10T06:02:36;4.93;;;3.83;;
74204;SDS011;62564;52.678;4.900;2023-06-10T06:05:01;5.47;;;4.10;;
74204;SDS011;62564;52.678;4.900;2023-06-10T06:07:27;4.87;;;4.13;;
74204;SDS011;62564;52.678;4.900;2023-06-10T06:09:52;5.00;;;3.40;;
74204;SDS011;62564;52.678;4.900;2023-06-10T06:12:17;5.67;;;5.10;;
74204;SDS011;62564;52.678;4.900;2023-06-10T06:14:42;4.03;;;3.10;;
74204;SDS011;62564;52.678;4.900;2023-06-10T06:19:34;4.83;;;4.33;;
74204;SDS011;62564;52.678;4.900;2023-06-10T06:22:00;4.57;;;3.85;;
74204;SDS011;62564;52.678;4.900;2023-06-10T06:24:25;5.30;;;3.85;;
74204;SDS011;62564;52.678;4.900;2023-06-10T06:26:50;5.77;;;3.83;;
74204;SDS011;62564;52.678;4.900;2023-06-10T06:29:16;5.00;;;4.47;;
74204;SDS011;62564;52.678;4.900;2023-06-10T06:31:41;4.60;;;3.72;;
74204;SDS011;62564;52.678;4.900;2023-06-10T06:34:06;4.70;;;3.50;;
74204;SDS011;62564;52.678;4.900;2023-06-10T06:36:32;4.63;;;3.70;;
74204;SDS011;62564;52.678;4.900;2023-06-10T06:38:57;4.83;;;4.33;;
74204;SDS011;62564;52.678;4.900;2023-06-10T06:41:23;5.53;;;4.00;;
74204;SDS011;62564;52.678;4.900;2023-06-10T06:43:51;5.05;;;3.83;;
74204;SDS011;62564;52.678;4.900;2023-06-10T06:46:16;4.97;;;4.47;;
74204;SDS011;62564;52.678;4.900;2023-06-10T06:48:41;5.30;;;3.85;;
74204;SDS011;62564;52.678;4.900;2023-06-10T06:51:07;4.30;;;3.47;;
74204;SDS011;62564;52.678;4.900;2023-06-10T06:53:32;5.53;;;4.40;;
74204;SDS011;62564;52.678;4.900;2023-06-10T06:55:57;4.77;;;3.57;;
74204;SDS011;62564;52.678;4.900;2023-06-10T06:58:23;5.20;;;3.83;;
74204;SDS011;62564;52.678;4.900;2023-06-10T07:00:48;4.33;;;3.63;;
74204;SDS011;62564;52.678;4.900;2023-06-10T07:03:13;5.40;;;3.87;;
74204;SDS011;62564;52.678;4.900;2023-06-10T07:05:38;5.80;;;5.17;;
74204;SDS011;62564;52.678;4.900;2023-06-10T07:08:04;4.43;;;3.22;;
74204;SDS011;62564;52.678;4.900;2023-06-10T07:10:29;4.47;;;3.88;;
74204;SDS011;62564;52.678;4.900;2023-06-10T07:12:55;5.05;;;4.43;;
74204;SDS011;62564;52.678;4.900;2023-06-10T07:15:20;4.93;;;4.43;;
74204;SDS011;62564;52.678;4.900;2023-06-10T07:17:45;5.15;;;4.35;;
74204;SDS011;62564;52.678;4.900;2023-06-10T07:20:11;5.07;;;4.03;;
74204;SDS011;62564;52.678;4.900;2023-06-10T07:22:36;4.90;;;3.67;;
74204;SDS011;62564;52.678;4.900;2023-06-10T07:25:04;4.82;;;4.10;;
74204;SDS011;62564;52.678;4.900;2023-06-10T07:27:29;4.72;;;3.95;;
74204;SDS011;62564;52.678;4.900;2023-06-10T07:29:55;4.78;;;4.28;;
74204;SDS011;62564;52.678;4.900;2023-06-10T07:32:20;4.37;;;3.70;;
74204;SDS011;62564;52.678;4.900;2023-06-10T07:34:47;5.03;;;3.80;;
74204;SDS011;62564;52.678;4.900;2023-06-10T07:37:12;5.03;;;4.15;;
74204;SDS011;62564;52.678;4.900;2023-06-10T07:39:37;4.78;;;3.60;;
74204;SDS011;62564;52.678;4.900;2023-06-10T07:42:03;4.80;;;3.90;;
74204;SDS011;62564;52.678;4.900;2023-06-10T07:44:28;4.07;;;3.65;;
74204;SDS011;62564;52.678;4.900;2023-06-10T07:46:54;4.82;;;3.95;;
74204;SDS011;62564;52.678;4.900;2023-06-10T07:49:19;4.80;;;4.05;;
74204;SDS011;62564;52.678;4.900;2023-06-10T07:51:44;5.40;;;4.17;;
74204;SDS011;62564;52.678;4.900;2023-06-10T07:54:10;5.27;;;4.43;;
74204;SDS011;62564;52.678;4.900;2023-06-10T07:56:37;4.60;;;3.45;;
74204;SDS011;62564;52.678;4.900;2023-06-10T07:59:02;5.30;;;3.97;;
74204;SDS011;62564;52.678;4.900;2023-06-10T08:01:28;5.43;;;4.93;;
74204;SDS011;62564;52.678;4.900;2023-06-10T08:06:20;5.47;;;4.27;;
74204;SDS011;62564;52.678;4.900;2023-06-10T08:08:45;5.05;;;4.32;;
74204;SDS011;62564;52.678;4.900;2023-06-10T08:11:11;6.25;;;5.35;;
74204;SDS011;62564;52.678;4.900;2023-06-10T08:13:36;4.97;;;4.47;;
74204;SDS011;62564;52.678;4.900;2023-06-10T08:16:02;5.50;;;4.57;;
74204;SDS011;62564;52.678;4.900;2023-06-10T08:18:28;4.85;;;4.25;;
74204;SDS011;62564;52.678;4.900;2023-06-10T08:20:53;4.57;;;3.72;;
74204;SDS011;62564;52.678;4.900;2023-06-10T08:23:18;4.88;;;4.28;;
74204;SDS011;62564;52.678;4.900;2023-06-10T08:25:44;5.18;;;4.68;;
74204;SDS011;62564;52.678;4.900;2023-06-10T08:28:10;5.27;;;4.13;;
74204;SDS011;62564;52.678;4.900;2023-06-10T08:30:35;5.03;;;4.53;;
74204;SDS011;62564;52.678;4.900;2023-06-10T08:33:00;4.83;;;4.30;;
74204;SDS011;62564;52.678;4.900;2023-06-10T08:35:25;5.00;;;4.50;;
74204;SDS011;62564;52.678;4.900;2023-06-10T08:37:51;5.35;;;4.28;;
74204;SDS011;62564;52.678;4.900;2023-06-10T08:40:16;5.17;;;4.57;;
74204;SDS011;62564;52.678;4.900;2023-06-10T08:42:49;5.95;;;4.45;;
74204;SDS011;62564;52.678;4.900;2023-06-10T08:45:32;4.70;;;3.70;;
74204;SDS011;62564;52.678;4.900;2023-06-10T08:48:05;4.93;;;4.43;;
74204;SDS011;62564;52.678;4.900;2023-06-10T08:50:34;4.32;;;3.75;;
74204;SDS011;62564;52.678;4.900;2023-06-10T08:53:01;4.47;;;3.67;;
74204;SDS011;62564;52.678;4.900;2023-06-10T08:55:28;4.65;;;3.40;;
74204;SDS011;62564;52.678;4.900;2023-06-10T08:57:54;4.75;;;4.20;;
74204;SDS011;62564;52.678;4.900;2023-06-10T09:00:19;5.00;;;4.50;;
74204;SDS011;62564;52.678;4.900;2023-06-10T09:02:45;4.82;;;4.32;;
74204;SDS011;62564;52.678;4.900;2023-06-10T09:05:11;4.65;;;4.10;;
74204;SDS011;62564;52.678;4.900;2023-06-10T09:07:37;4.75;;;4.18;;
74204;SDS011;62564;52.678;4.900;2023-06-10T09:10:03;5.28;;;4.15;;
74204;SDS011;62564;52.678;4.900;2023-06-10T09:12:29;4.70;;;4.20;;
74204;SDS011;62564;52.678;4.900;2023-06-10T09:14:55;5.50;;;3.92;;
74204;SDS011;62564;52.678;4.900;2023-06-10T09:17:21;4.93;;;3.97;;
74204;SDS011;62564;52.678;4.900;2023-06-10T09:19:47;4.85;;;3.78;;
74204;SDS011;62564;52.678;4.900;2023-06-10T09:22:12;5.07;;;4.05;;
74204;SDS011;62564;52.678;4.900;2023-06-10T09:24:38;5.13;;;3.97;;
74204;SDS011;62564;52.678;4.900;2023-06-10T09:27:04;5.43;;;4.03;;
74204;SDS011;62564;52.678;4.900;2023-06-10T09:29:53;5.22;;;4.03;;
74204;SDS011;62564;52.678;4.900;2023-06-10T09:32:19;5.03;;;3.45;;
74204;SDS011;62564;52.678;4.900;2023-06-10T09:34:45;5.43;;;4.25;;
74204;SDS011;62564;52.678;4.900;2023-06-10T09:37:11;5.50;;;4.13;;
74204;SDS011;62564;52.678;4.900;2023-06-10T09:39:38;5.82;;;5.22;;
74204;SDS011;62564;52.678;4.900;2023-06-10T09:42:19;4.72;;;3.90;;
74204;SDS011;62564;52.678;4.900;2023-06-10T09:44:50;4.88;;;4.28;;
74204;SDS011;62564;52.678;4.900;2023-06-10T09:47:19;4.78;;;4.22;;
74204;SDS011;62564;52.678;4.900;2023-06-10T09:49:46;4.63;;;3.80;;
74204;SDS011;62564;52.678;4.900;2023-06-10T09:52:11;5.40;;;3.87;;
74204;SDS011;62564;52.678;4.900;2023-06-10T09:54:36;5.30;;;4.57;;
74204;SDS011;62564;52.678;4.900;2023-06-10T09:57:06;5.23;;;4.17;;
74204;SDS011;62564;52.678;4.900;2023-06-10T09:59:32;5.35;;;4.47;;
74204;SDS011;62564;52.678;4.900;2023-06-10T10:01:59;5.00;;;4.40;;
74204;SDS011;62564;52.678;4.900;2023-06-10T10:04:25;4.85;;;4.25;;
74204;SDS011;62564;52.678;4.900;2023-06-10T10:06:51;5.15;;;4.15;;
74204;SDS011;62564;52.678;4.900;2023-06-10T10:09:17;4.63;;;4.13;;
74204;SDS011;62564;52.678;4.900;2023-06-10T10:11:43;5.95;;;4.55;;
74204;SDS011;62564;52.678;4.900;2023-06-10T10:14:09;5.03;;;4.30;;
74204;SDS011;62564;52.678;4.900;2023-06-10T10:16:37;6.97;;;4.82;;
74204;SDS011;62564;52.678;4.900;2023-06-10T10:19:27;5.80;;;4.80;;
74204;SDS011;62564;52.678;4.900;2023-06-10T10:21:55;4.90;;;4.40;;
74204;SDS011;62564;52.678;4.900;2023-06-10T10:24:31;6.43;;;5.35;;
74204;SDS011;62564;52.678;4.900;2023-06-10T10:26:59;5.82;;;4.28;;
74204;SDS011;62564;52.678;4.900;2023-06-10T10:29:45;5.63;;;5.13;;
74204;SDS011;62564;52.678;4.900;2023-06-10T10:32:12;4.75;;;3.97;;
74204;SDS011;62564;52.678;4.900;2023-06-10T10:34:43;4.93;;;4.43;;
74204;SDS011;62564;52.678;4.900;2023-06-10T10:37:13;5.78;;;4.25;;
74204;SDS011;62564;52.678;4.900;2023-06-10T10:39:39;5.60;;;4.83;;
74204;SDS011;62564;52.678;4.900;2023-06-10T10:42:04;4.65;;;3.80;;
74204;SDS011;62564;52.678;4.900;2023-06-10T10:44:34;5.88;;;4.30;;
74204;SDS011;62564;52.678;4.900;2023-06-10T10:47:02;5.45;;;4.65;;
74204;SDS011;62564;52.678;4.900;2023-06-10T10:49:28;5.10;;;4.35;;
74204;SDS011;62564;52.678;4.900;2023-06-10T10:51:58;5.57;;;4.85;;
74204;SDS011;62564;52.678;4.900;2023-06-10T10:54:31;5.45;;;4.60;;
74204;SDS011;62564;52.678;4.900;2023-06-10T11:04:58;6.38;;;5.78;;
74204;SDS011;62564;52.678;4.900;2023-06-10T11:07:25;5.78;;;5.03;;
74204;SDS011;62564;52.678;4.900;2023-06-10T11:09:57;5.25;;;4.10;;
74204;SDS011;62564;52.678;4.900;2023-06-10T11:12:24;5.53;;;4.90;;
74204;SDS011;62564;52.678;4.900;2023-06-10T11:14:56;6.28;;;5.63;;
74204;SDS011;62564;52.678;4.900;2023-06-10T11:17:21;5.43;;;4.93;;
74204;SDS011;62564;52.678;4.900;2023-06-10T11:19:47;5.15;;;4.45;;
74204;SDS011;62564;52.678;4.900;2023-06-10T11:22:18;5.45;;;4.95;;
74204;SDS011;62564;52.678;4.900;2023-06-10T11:24:47;5.75;;;5.18;;
74204;SDS011;62564;52.678;4.900;2023-06-10T11:27:15;5.32;;;4.82;;
74204;SDS011;62564;52.678;4.900;2023-06-10T11:32:28;6.55;;;5.95;;
74204;SDS011;62564;52.678;4.900;2023-06-10T11:34:55;6.30;;;4.93;;
74204;SDS011;62564;52.678;4.900;2023-06-10T11:37:21;5.57;;;5.07;;
74204;SDS011;62564;52.678;4.900;2023-06-10T11:39:46;5.05;;;4.45;;
74204;SDS011;62564;52.678;4.900;2023-06-10T11:42:12;6.78;;;5.35;;
74204;SDS011;62564;52.678;4.900;2023-06-10T11:44:38;6.47;;;5.80;;
74204;SDS011;62564;52.678;4.900;2023-06-10T11:47:03;6.50;;;5.90;;
74204;SDS011;62564;52.678;4.900;2023-06-10T11:49:29;6.57;;;5.68;;
74204;SDS011;62564;52.678;4.900;2023-06-10T11:51:54;6.22;;;5.63;;
74204;SDS011;62564;52.678;4.900;2023-06-10T11:54:20;5.50;;;5.00;;
74204;SDS011;62564;52.678;4.900;2023-06-10T11:56:46;5.85;;;5.32;;
74204;SDS011;62564;52.678;4.900;2023-06-10T11:59:12;5.82;;;5.22;;
74204;SDS011;62564;52.678;4.900;2023-06-10T12:01:41;6.68;;;6.07;;
74204;SDS011;62564;52.678;4.900;2023-06-10T12:04:09;5.72;;;5.03;;
74204;SDS011;62564;52.678;4.900;2023-06-10T12:06:39;6.25;;;5.28;;
74204;SDS011;62564;52.678;4.900;2023-06-10T12:09:25;6.63;;;6.00;;
74204;SDS011;62564;52.678;4.900;2023-06-10T12:12:01;5.82;;;5.20;;
74204;SDS011;62564;52.678;4.900;2023-06-10T12:14:49;5.32;;;4.68;;
74204;SDS011;62564;52.678;4.900;2023-06-10T12:17:20;5.07;;;4.57;;
74204;SDS011;62564;52.678;4.900;2023-06-10T12:20:06;5.70;;;5.13;;
74204;SDS011;62564;52.678;4.900;2023-06-10T12:22:51;6.20;;;5.70;;
74204;SDS011;62564;52.678;4.900;2023-06-10T12:25:16;5.97;;;5.47;;
74204;SDS011;62564;52.678;4.900;2023-06-10T12:27:51;5.60;;;4.90;;
74204;SDS011;62564;52.678;4.900;2023-06-10T12:30:21;6.43;;;5.82;;
74204;SDS011;62564;52.678;4.900;2023-06-10T12:32:47;7.07;;;5.38;;
74204;SDS011;62564;52.678;4.900;2023-06-10T12:35:17;6.20;;;5.60;;
74204;SDS011;62564;52.678;4.900;2023-06-10T12:37:54;6.25;;;5.65;;
74204;SDS011;62564;52.678;4.900;2023-06-10T12:40:25;6.65;;;6.05;;
74204;SDS011;62564;52.678;4.900;2023-06-10T12:42:56;7.15;;;6.50;;
74204;SDS011;62564;52.678;4.900;2023-06-10T12:45:32;6.82;;;6.15;;
74204;SDS011;62564;52.678;4.900;2023-06-10T12:50:50;4.95;;;4.35;;
74204;SDS011;62564;52.678;4.900;2023-06-10T12:53:17;5.90;;;5.30;;
74204;SDS011;62564;52.678;4.900;2023-06-10T12:58:10;6.05;;;5.35;;
74204;SDS011;62564;52.678;4.900;2023-06-10T13:00:36;5.95;;;5.35;;
74204;SDS011;62564;52.678;4.900;2023-06-10T13:03:01;6.10;;;5.13;;
74204;SDS011;62564;52.678;4.900;2023-06-10T13:05:28;5.90;;;5.40;;
74204;SDS011;62564;52.678;4.900;2023-06-10T13:07:53;6.57;;;5.97;;
74204;SDS011;62564;52.678;4.900;2023-06-10T13:10:20;6.18;;;5.63;;
74204;SDS011;62564;52.678;4.900;2023-06-10T13:15:11;6.88;;;6.28;;
74204;SDS011;62564;52.678;4.900;2023-06-10T13:17:37;6.65;;;6.05;;
74204;SDS011;62564;52.678;4.900;2023-06-10T13:20:03;5.97;;;5.47;;
74204;SDS011;62564;52.678;4.900;2023-06-10T13:22:30;5.20;;;4.25;;
74204;SDS011;62564;52.678;4.900;2023-06-10T13:24:57;7.22;;;6.53;;
74204;SDS011;62564;52.678;4.900;2023-06-10T13:27:23;5.65;;;5.15;;
74204;SDS011;62564;52.678;4.900;2023-06-10T13:29:48;5.80;;;5.30;;
74204;SDS011;62564;52.678;4.900;2023-06-10T13:32:14;6.60;;;6.00;;
74204;SDS011;62564;52.678;4.900;2023-06-10T13:34:39;7.00;;;6.32;;
74204;SDS011;62564;52.678;4.900;2023-06-10T13:37:05;6.90;;;6.30;;
74204;SDS011;62564;52.678;4.900;2023-06-10T13:39:30;7.78;;;7.07;;
74204;SDS011;62564;52.678;4.900;2023-06-10T13:41:56;6.13;;;5.60;;
74204;SDS011;62564;52.678;4.900;2023-06-10T13:44:21;6.60;;;6.00;;
74204;SDS011;62564;52.678;4.900;2023-06-10T13:46:46;5.90;;;5.40;;
74204;SDS011;62564;52.678;4.900;2023-06-10T13:49:12;7.73;;;6.93;;
74204;SDS011;62564;52.678;4.900;2023-06-10T13:51:37;5.85;;;5.25;;
74204;SDS011;62564;52.678;4.900;2023-06-10T13:54:02;5.78;;;5.22;;
74204;SDS011;62564;52.678;4.900;2023-06-10T13:56:28;6.45;;;5.85;;
74204;SDS011;62564;52.678;4.900;2023-06-10T13:58:53;6.20;;;5.60;;
74204;SDS011;62564;52.678;4.900;2023-06-10T14:01:18;6.93;;;6.22;;
74204;SDS011;62564;52.678;4.900;2023-06-10T14:03:44;6.72;;;5.85;;
74204;SDS011;62564;52.678;4.900;2023-06-10T14:06:09;6.10;;;5.60;;
74204;SDS011;62564;52.678;4.900;2023-06-10T14:08:37;5.95;;;5.28;;
74204;SDS011;62564;52.678;4.900;2023-06-10T14:11:03;5.83;;;5.20;;
74204;SDS011;62564;52.678;4.900;2023-06-10T14:13:29;5.95;;;5.32;;
74204;SDS011;62564;52.678;4.900;2023-06-10T14:15:54;6.00;;;5.40;;
74204;SDS011;62564;52.678;4.900;2023-06-10T14:18:20;7.68;;;7.07;;
74204;SDS011;62564;52.678;4.900;2023-06-10T14:20:45;5.70;;;4.97;;
74204;SDS011;62564;52.678;4.900;2023-06-10T14:23:10;6.00;;;5.40;;
74204;SDS011;62564;52.678;4.900;2023-06-10T14:25:35;5.47;;;4.97;;
74204;SDS011;62564;52.678;4.900;2023-06-10T14:28:01;6.43;;;5.82;;
74204;SDS011;62564;52.678;4.900;2023-06-10T14:30:27;6.60;;;5.72;;
74204;SDS011;62564;52.678;4.900;2023-06-10T14:32:52;7.03;;;6.35;;
74204;SDS011;62564;52.678;4.900;2023-06-10T14:35:17;5.83;;;5.30;;
74204;SDS011;62564;52.678;4.900;2023-06-10T14:37:42;5.47;;;4.87;;
74204;SDS011;62564;52.678;4.900;2023-06-10T14:40:08;5.27;;;4.77;;
74204;SDS011;62564;52.678;4.900;2023-06-10T14:42:34;5.63;;;5.13;;
74204;SDS011;62564;52.678;4.900;2023-06-10T14:44:59;5.43;;;4.82;;
74204;SDS011;62564;52.678;4.900;2023-06-10T14:47:25;5.60;;;5.10;;
74204;SDS011;62564;52.678;4.900;2023-06-10T14:49:50;5.82;;;5.22;;
74204;SDS011;62564;52.678;4.900;2023-06-10T14:52:16;6.35;;;5.72;;
74204;SDS011;62564;52.678;4.900;2023-06-10T14:54:41;6.50;;;5.90;;
74204;SDS011;62564;52.678;4.900;2023-06-10T14:57:06;6.37;;;5.27;;
74204;SDS011;62564;52.678;4.900;2023-06-10T14:59:32;5.35;;;4.85;;
74204;SDS011;62564;52.678;4.900;2023-06-10T15:01:58;4.88;;;4.38;;
74204;SDS011;62564;52.678;4.900;2023-06-10T15:04:25;5.53;;;4.70;;
74204;SDS011;62564;52.678;4.900;2023-06-10T15:06:51;5.15;;;4.65;;
74204;SDS011;62564;52.678;4.900;2023-06-10T15:09:16;5.82;;;5.32;;
74204;SDS011;62564;52.678;4.900;2023-06-10T15:11:42;5.93;;;5.33;;
74204;SDS011;62564;52.678;4.900;2023-06-10T15:14:07;6.83;;;6.27;;
74204;SDS011;62564;52.678;4.900;2023-06-10T15:16:32;5.37;;;4.87;;